createdAt,value
2018-01-19T00:00:42.486Z,2.87
2018-01-19T00:03:09.938Z,3.00
2018-01-19T00:05:37.406Z,3.07
2018-01-19T00:08:04.855Z,2.90
2018-01-19T00:10:32.323Z,3.50
2018-01-19T00:12:59.761Z,3.60
2018-01-19T00:15:27.237Z,3.33
2018-01-19T00:17:54.773Z,3.70
2018-01-19T00:20:22.220Z,3.77
2018-01-19T00:22:49.663Z,3.53
2018-01-19T00:25:17.131Z,4.10
2018-01-19T00:27:44.591Z,3.53
2018-01-19T00:30:12.085Z,4.30
2018-01-19T00:32:39.554Z,4.27
2018-01-19T00:35:07.015Z,4.30
2018-01-19T00:37:34.470Z,4.30
2018-01-19T00:40:01.907Z,4.57
2018-01-19T00:42:29.368Z,3.43
2018-01-19T00:44:56.813Z,4.37
2018-01-19T00:47:24.286Z,4.43
2018-01-19T00:49:51.729Z,4.10
2018-01-19T00:52:19.193Z,3.47
2018-01-19T00:54:46.652Z,3.63
2018-01-19T00:57:14.145Z,4.40
2018-01-19T00:59:41.632Z,4.67
2018-01-19T01:02:09.085Z,4.03
2018-01-19T01:04:36.547Z,4.77
2018-01-19T01:07:04.010Z,4.27
2018-01-19T01:09:31.447Z,4.23
2018-01-19T01:11:58.891Z,4.00
2018-01-19T01:14:26.343Z,5.23
2018-01-19T01:16:53.786Z,3.67
2018-01-19T01:19:21.251Z,3.63
2018-01-19T01:21:48.727Z,3.10
2018-01-19T01:24:16.193Z,3.30
2018-01-19T01:26:43.653Z,3.40
2018-01-19T01:29:11.123Z,2.93
2018-01-19T01:31:38.571Z,3.73
2018-01-19T01:34:06.029Z,3.23
2018-01-19T01:36:33.492Z,3.40
2018-01-19T01:39:00.949Z,3.23
2018-01-19T01:41:28.396Z,3.03
2018-01-19T01:43:55.851Z,3.00
2018-01-19T01:46:23.299Z,2.53
2018-01-19T01:49:02.617Z,2.50
2018-01-19T01:51:30.072Z,2.80
2018-01-19T01:53:58.529Z,1.97
2018-01-19T01:56:25.982Z,2.63
2018-01-19T01:58:53.435Z,2.10
2018-01-19T02:01:20.887Z,2.17
2018-01-19T02:03:48.348Z,2.37
2018-01-19T02:06:15.820Z,1.93
2018-01-19T02:08:43.264Z,2.30
2018-01-19T02:11:10.720Z,2.30
2018-01-19T02:13:38.173Z,2.07
2018-01-19T02:16:05.646Z,2.47
2018-01-19T02:18:33.184Z,2.17
2018-01-19T02:21:00.670Z,2.60
2018-01-19T02:23:28.118Z,2.50
2018-01-19T02:25:55.680Z,1.90
2018-01-19T02:28:23.135Z,2.33
2018-01-19T02:30:50.596Z,2.37
2018-01-19T02:33:18.048Z,1.97
2018-01-19T02:35:45.524Z,2.20
2018-01-19T02:38:13.008Z,2.33
2018-01-19T02:40:40.804Z,3.20
2018-01-19T02:43:08.247Z,2.23
2018-01-19T02:45:35.701Z,2.10
2018-01-19T02:48:03.152Z,2.53
2018-01-19T02:50:30.583Z,2.50
2018-01-19T02:52:58.040Z,2.20
2018-01-19T02:55:25.535Z,3.00
2018-01-19T02:57:52.993Z,3.03
2018-01-19T03:00:20.495Z,2.77
2018-01-19T03:02:48.049Z,3.10
2018-01-19T03:05:15.493Z,3.23
2018-01-19T03:07:42.946Z,2.67
2018-01-19T03:10:10.385Z,3.10
2018-01-19T03:12:37.932Z,2.97
2018-01-19T03:15:05.402Z,2.50
2018-01-19T03:17:32.925Z,4.17
2018-01-19T03:20:00.388Z,3.50
2018-01-19T03:22:27.846Z,3.10
2018-01-19T03:24:55.291Z,3.57
2018-01-19T03:27:22.763Z,2.57
2018-01-19T03:29:50.242Z,2.60
2018-01-19T03:32:18.222Z,3.17
2018-01-19T03:34:45.688Z,3.13
2018-01-19T03:37:13.136Z,3.00
2018-01-19T03:39:40.648Z,2.73
2018-01-19T03:42:08.199Z,2.77
2018-01-19T03:44:35.772Z,3.27
2018-01-19T03:47:03.259Z,3.30
2018-01-19T03:49:30.712Z,3.63
2018-01-19T03:51:58.188Z,3.10
2018-01-19T03:54:25.660Z,2.30
2018-01-19T03:56:53.154Z,3.40
2018-01-19T03:59:20.598Z,2.80
2018-01-19T04:01:48.066Z,3.27
2018-01-19T04:04:15.548Z,3.27
2018-01-19T04:06:43.017Z,3.17
2018-01-19T04:09:10.480Z,3.00
2018-01-19T04:11:37.938Z,3.63
2018-01-19T04:14:05.382Z,2.63
2018-01-19T04:16:32.835Z,2.23
2018-01-19T04:19:00.367Z,2.67
2018-01-19T04:21:27.827Z,2.47
2018-01-19T04:23:55.295Z,2.73
2018-01-19T04:26:22.931Z,3.07
2018-01-19T04:28:50.484Z,2.40
2018-01-19T04:31:18.129Z,3.33
2018-01-19T04:33:45.588Z,2.50
2018-01-19T04:36:13.034Z,3.00
2018-01-19T04:38:40.487Z,2.70
2018-01-19T04:41:07.931Z,2.40
2018-01-19T04:43:35.417Z,2.47
2018-01-19T04:46:02.873Z,2.43
2018-01-19T04:48:30.401Z,3.80
2018-01-19T04:50:57.889Z,2.40
2018-01-19T04:53:25.349Z,2.83
2018-01-19T04:55:52.819Z,3.30
2018-01-19T04:58:20.300Z,2.53
2018-01-19T05:00:47.892Z,3.27
2018-01-19T05:03:15.361Z,2.97
2018-01-19T05:05:42.807Z,3.13
2018-01-19T05:08:10.294Z,2.83
2018-01-19T05:10:37.971Z,2.33
2018-01-19T05:13:05.428Z,2.63
2018-01-19T05:15:32.885Z,2.50
2018-01-19T05:18:00.335Z,2.47
2018-01-19T05:20:27.843Z,3.17
2018-01-19T05:22:55.299Z,2.53
2018-01-19T05:25:22.766Z,2.50
2018-01-19T05:27:50.233Z,3.10
2018-01-19T05:30:17.716Z,2.10
2018-01-19T05:32:45.174Z,2.60
2018-01-19T05:35:12.624Z,2.93
2018-01-19T05:37:40.084Z,2.90
2018-01-19T05:40:07.590Z,2.23
2018-01-19T05:42:35.050Z,2.23
2018-01-19T05:45:02.508Z,2.90
2018-01-19T05:47:29.978Z,4.27
2018-01-19T05:49:57.458Z,2.83
2018-01-19T05:52:24.922Z,2.70
2018-01-19T05:54:52.373Z,3.20
2018-01-19T05:57:19.837Z,3.30
2018-01-19T05:59:47.308Z,4.00
2018-01-19T06:02:14.801Z,2.10
2018-01-19T06:04:42.236Z,2.07
2018-01-19T06:07:09.800Z,2.50
2018-01-19T06:09:37.264Z,2.17
2018-01-19T06:12:04.762Z,2.20
2018-01-19T06:14:32.199Z,2.80
2018-01-19T06:16:59.658Z,2.53
2018-01-19T06:19:27.100Z,2.90
2018-01-19T06:21:54.575Z,2.50
2018-01-19T06:24:22.089Z,2.77
2018-01-19T06:26:49.567Z,3.30
2018-01-19T06:29:17.124Z,3.00
2018-01-19T06:31:44.583Z,2.40
2018-01-19T06:34:12.036Z,3.23
2018-01-19T06:36:39.487Z,3.00
2018-01-19T06:39:06.978Z,2.93
2018-01-19T06:41:34.434Z,2.70
2018-01-19T06:44:01.903Z,3.30
2018-01-19T06:46:29.355Z,2.50
2018-01-19T06:48:56.954Z,2.97
2018-01-19T06:51:24.421Z,3.33
2018-01-19T06:53:51.875Z,2.40
2018-01-19T06:56:19.343Z,4.50
2018-01-19T06:58:46.813Z,3.03
2018-01-19T07:01:14.397Z,3.07
2018-01-19T07:03:41.946Z,3.60
2018-01-19T07:06:09.413Z,3.83
2018-01-19T07:08:36.875Z,4.03
2018-01-19T07:11:04.329Z,3.90
2018-01-19T07:13:31.788Z,4.40
2018-01-19T07:15:59.265Z,3.27
2018-01-19T07:18:26.750Z,3.27
2018-01-19T07:20:54.293Z,3.47
2018-01-19T07:23:21.692Z,3.83
2018-01-19T07:25:49.152Z,2.73
2018-01-19T07:28:17.018Z,2.37
2018-01-19T07:30:44.690Z,4.17
2018-01-19T07:33:12.141Z,3.43
2018-01-19T07:35:39.616Z,3.17
2018-01-19T07:38:07.100Z,2.90
2018-01-19T07:40:34.553Z,3.43
2018-01-19T07:43:02.033Z,4.60
2018-01-19T07:45:29.471Z,4.50
2018-01-19T07:47:56.938Z,7.07
2018-01-19T07:50:24.389Z,7.40
2018-01-19T07:52:51.855Z,4.83
2018-01-19T07:55:19.305Z,6.13
2018-01-19T07:57:46.775Z,6.73
2018-01-19T08:00:14.231Z,35.73
2018-01-19T08:02:41.713Z,9.43
2018-01-19T08:05:09.223Z,17.83
2018-01-19T08:07:36.682Z,7.70
2018-01-19T08:10:04.164Z,9.30
2018-01-19T08:12:31.700Z,7.50
2018-01-19T08:14:59.199Z,11.23
2018-01-19T08:17:26.673Z,3.80
2018-01-19T08:19:54.233Z,4.37
2018-01-19T08:22:21.780Z,3.10
2018-01-19T08:24:49.281Z,3.27
2018-01-19T08:27:16.712Z,3.70
2018-01-19T08:29:44.172Z,2.87
2018-01-19T08:32:11.634Z,4.10
2018-01-19T08:34:39.088Z,3.77
2018-01-19T08:37:06.544Z,3.53
2018-01-19T08:39:34.024Z,3.27
2018-01-19T08:42:01.475Z,3.37
2018-01-19T08:44:28.943Z,3.27
2018-01-19T08:46:56.400Z,3.67
2018-01-19T08:49:23.859Z,2.87
2018-01-19T08:51:51.296Z,2.90
2018-01-19T08:54:18.731Z,3.80
2018-01-19T08:56:46.198Z,5.40
2018-01-19T08:59:13.789Z,3.90
2018-01-19T09:01:41.361Z,3.47
2018-01-19T09:04:08.813Z,2.93
2018-01-19T09:06:36.264Z,2.93
2018-01-19T09:09:03.779Z,5.23
2018-01-19T09:11:31.255Z,3.60
2018-01-19T09:13:58.717Z,3.43
2018-01-19T09:16:26.175Z,3.53
2018-01-19T09:18:53.623Z,3.20
2018-01-19T09:21:21.447Z,3.50
2018-01-19T09:23:48.903Z,4.83
2018-01-19T09:26:16.367Z,4.67
2018-01-19T09:28:43.816Z,3.70
2018-01-19T09:31:11.313Z,2.80
2018-01-19T09:33:38.885Z,2.47
2018-01-19T09:36:06.319Z,2.87
2018-01-19T09:38:33.774Z,3.30
2018-01-19T09:41:01.300Z,2.97
2018-01-19T09:43:28.751Z,3.20
2018-01-19T09:45:56.210Z,3.57
2018-01-19T09:48:23.682Z,3.00
2018-01-19T09:50:51.137Z,4.40
2018-01-19T09:53:18.609Z,5.47
2018-01-19T09:55:46.051Z,3.80
2018-01-19T09:58:13.539Z,4.53
2018-01-19T10:00:41.009Z,3.77
2018-01-19T10:03:08.462Z,3.20
2018-01-19T10:05:35.921Z,4.20
2018-01-19T10:08:03.384Z,3.03
2018-01-19T10:10:30.862Z,3.37
2018-01-19T10:12:58.394Z,4.37
2018-01-19T10:15:25.862Z,4.03
2018-01-19T10:17:53.299Z,2.90
2018-01-19T10:20:20.754Z,3.97
2018-01-19T10:22:48.212Z,2.57
2018-01-19T10:25:16.245Z,2.97
2018-01-19T10:27:43.900Z,3.97
2018-01-19T10:30:11.352Z,3.03
2018-01-19T10:32:38.808Z,3.53
2018-01-19T10:35:06.263Z,3.50
2018-01-19T10:37:33.703Z,3.33
2018-01-19T10:40:01.199Z,3.13
2018-01-19T10:42:28.674Z,3.63
2018-01-19T10:44:56.296Z,3.90
2018-01-19T10:47:23.768Z,3.20
2018-01-19T10:49:51.228Z,3.23
2018-01-19T10:52:18.692Z,2.97
2018-01-19T10:54:46.268Z,2.57
2018-01-19T10:57:13.733Z,3.07
2018-01-19T10:59:41.275Z,2.80
2018-01-19T11:02:08.748Z,3.23
2018-01-19T11:04:36.315Z,2.73
2018-01-19T11:07:03.813Z,2.90
2018-01-19T11:09:31.367Z,2.90
2018-01-19T11:11:58.883Z,3.37
2018-01-19T11:14:26.341Z,4.47
2018-01-19T11:16:53.793Z,3.80
2018-01-19T11:19:21.270Z,3.00
2018-01-19T11:21:48.739Z,2.27
2018-01-19T11:24:16.782Z,3.20
2018-01-19T11:26:44.233Z,3.63
2018-01-19T11:29:11.689Z,2.90
2018-01-19T11:31:39.144Z,2.43
2018-01-19T11:34:06.615Z,5.27
2018-01-19T11:36:34.052Z,2.60
2018-01-19T11:39:01.545Z,3.07
2018-01-19T11:41:28.994Z,2.17
2018-01-19T11:43:56.645Z,2.33
2018-01-19T11:46:24.104Z,2.10
2018-01-19T11:48:51.552Z,2.47
2018-01-19T11:51:19.019Z,2.50
2018-01-19T11:53:46.485Z,2.50
2018-01-19T11:56:13.952Z,2.60
2018-01-19T11:58:41.393Z,2.13
2018-01-19T12:01:08.859Z,2.20
2018-01-19T12:03:36.310Z,3.10
2018-01-19T12:06:03.771Z,2.60
2018-01-19T12:08:31.232Z,2.40
2018-01-19T12:10:58.688Z,3.20
2018-01-19T12:13:26.139Z,2.30
2018-01-19T12:15:53.593Z,2.47
2018-01-19T12:18:21.039Z,2.43
2018-01-19T12:20:48.505Z,2.70
2018-01-19T12:23:15.965Z,2.13
2018-01-19T12:25:43.442Z,2.23
2018-01-19T12:28:10.918Z,2.93
2018-01-19T12:30:38.364Z,2.70
2018-01-19T12:33:05.871Z,2.77
2018-01-19T12:35:33.331Z,3.53
2018-01-19T12:38:00.797Z,3.47
2018-01-19T12:40:28.319Z,2.63
2018-01-19T12:42:55.757Z,2.73
2018-01-19T12:45:23.219Z,3.17
2018-01-19T12:47:50.680Z,2.67
2018-01-19T12:50:18.139Z,2.60
2018-01-19T12:52:45.598Z,3.00
2018-01-19T12:55:13.089Z,2.63
2018-01-19T12:57:40.532Z,2.80
2018-01-19T13:00:07.986Z,2.87
2018-01-19T13:02:35.423Z,3.33
2018-01-19T13:05:02.891Z,3.17
2018-01-19T13:07:30.338Z,2.57
2018-01-19T13:09:57.814Z,2.73
2018-01-19T13:12:25.278Z,3.10
2018-01-19T13:14:52.764Z,3.03
2018-01-19T13:17:20.236Z,2.77
2018-01-19T13:19:47.784Z,3.20
2018-01-19T13:22:15.269Z,3.10
2018-01-19T13:24:42.708Z,3.17
2018-01-19T13:27:10.207Z,2.80
2018-01-19T13:29:37.852Z,3.30
2018-01-19T13:32:05.323Z,3.37
2018-01-19T13:34:32.815Z,4.43
2018-01-19T13:37:00.282Z,4.60
2018-01-19T13:39:27.734Z,4.47
2018-01-19T13:41:55.209Z,5.57
2018-01-19T13:44:22.679Z,4.90
2018-01-19T13:46:50.187Z,4.37
2018-01-19T13:49:18.358Z,5.03
2018-01-19T13:51:45.834Z,6.07
2018-01-19T13:54:13.279Z,4.57
2018-01-19T13:56:40.737Z,4.57
2018-01-19T13:59:08.220Z,5.07
2018-01-19T14:01:35.660Z,5.23
2018-01-19T14:04:03.114Z,4.57
2018-01-19T14:06:30.560Z,4.43
2018-01-19T14:08:58.026Z,3.93
2018-01-19T14:11:25.488Z,4.90
2018-01-19T14:13:52.955Z,4.90
2018-01-19T14:16:20.417Z,4.20
2018-01-19T14:18:47.873Z,4.60
2018-01-19T14:21:15.321Z,3.90
2018-01-19T14:23:42.781Z,3.90
2018-01-19T14:26:10.246Z,4.90
2018-01-19T14:28:37.745Z,4.70
2018-01-19T14:31:05.199Z,5.37
2018-01-19T14:33:32.648Z,5.03
2018-01-19T14:36:00.124Z,5.63
2018-01-19T14:38:27.599Z,6.40
2018-01-19T14:40:55.108Z,6.40
2018-01-19T14:43:22.549Z,6.03
2018-01-19T14:45:50.006Z,5.60
2018-01-19T14:48:17.486Z,6.13
2018-01-19T14:50:44.944Z,5.97
2018-01-19T14:53:12.400Z,6.20
2018-01-19T14:55:39.865Z,6.33
2018-01-19T14:58:07.321Z,5.83
2018-01-19T15:00:34.758Z,7.37
2018-01-19T15:03:02.270Z,7.93
2018-01-19T15:05:29.694Z,8.33
2018-01-19T15:07:57.179Z,7.63
2018-01-19T15:10:24.623Z,5.77
2018-01-19T15:12:52.080Z,5.97
2018-01-19T15:15:19.539Z,6.73
2018-01-19T15:17:47.005Z,5.50
2018-01-19T15:20:14.467Z,5.80
2018-01-19T15:22:41.912Z,5.30
2018-01-19T15:25:09.378Z,5.53
2018-01-19T15:27:37.133Z,5.80
2018-01-19T15:30:04.594Z,6.00
2018-01-19T15:32:32.055Z,5.63
2018-01-19T15:34:59.600Z,5.93
2018-01-19T15:37:27.059Z,5.40
2018-01-19T15:39:54.521Z,5.77
2018-01-19T15:42:21.980Z,5.67
2018-01-19T15:44:49.452Z,6.40
2018-01-19T15:47:16.957Z,6.40
2018-01-19T15:49:44.409Z,6.90
2018-01-19T15:52:11.876Z,7.03
2018-01-19T15:54:39.321Z,7.23
2018-01-19T15:57:06.787Z,7.20
2018-01-19T15:59:34.244Z,6.70
2018-01-19T16:02:01.720Z,6.07
2018-01-19T16:07:16.185Z,6.70
2018-01-19T16:09:43.641Z,6.50
2018-01-19T16:12:11.103Z,6.07
2018-01-19T16:14:38.561Z,6.77
2018-01-19T16:17:06.024Z,6.00
2018-01-19T16:19:33.522Z,6.83
2018-01-19T16:22:01.005Z,6.90
2018-01-19T16:24:28.484Z,5.80
2018-01-19T16:26:55.946Z,7.27
2018-01-19T16:29:23.415Z,6.47
2018-01-19T16:31:50.919Z,7.53
2018-01-19T16:34:18.362Z,7.37
2018-01-19T16:36:45.811Z,7.33
2018-01-19T16:39:13.331Z,8.70
2018-01-19T16:41:40.865Z,8.37
2018-01-19T16:44:08.352Z,8.17
2018-01-19T16:46:35.915Z,8.57
2018-01-19T16:49:07.244Z,7.87
2018-01-19T16:51:30.852Z,9.30
2018-01-19T16:53:58.427Z,9.33
2018-01-19T16:56:26.823Z,8.70
2018-01-19T16:58:54.304Z,7.60
2018-01-19T17:01:21.796Z,8.90
2018-01-19T17:03:49.353Z,9.87
2018-01-19T17:06:16.814Z,8.93
2018-01-19T17:08:44.296Z,8.10
2018-01-19T17:11:11.736Z,9.07
2018-01-19T17:13:39.178Z,10.77
2018-01-19T17:16:06.630Z,10.00
2018-01-19T17:18:34.082Z,9.83
2018-01-19T17:21:01.558Z,10.20
2018-01-19T17:23:29.011Z,9.83
2018-01-19T17:25:56.477Z,11.60
2018-01-19T17:28:23.938Z,10.00
2018-01-19T17:30:51.410Z,10.23
2018-01-19T17:33:18.868Z,10.27
2018-01-19T17:35:46.343Z,9.73
2018-01-19T17:38:13.832Z,10.47
2018-01-19T17:40:41.400Z,9.90
2018-01-19T17:43:08.871Z,11.03
2018-01-19T17:45:36.329Z,11.97
2018-01-19T17:48:03.797Z,10.47
2018-01-19T17:50:31.277Z,13.27
2018-01-19T17:52:58.736Z,11.83
2018-01-19T17:55:26.312Z,9.97
2018-01-19T17:57:53.764Z,10.37
2018-01-19T18:00:21.291Z,11.17
2018-01-19T18:02:48.845Z,9.83
2018-01-19T18:05:16.297Z,11.93
2018-01-19T18:07:43.850Z,11.43
2018-01-19T18:10:11.305Z,10.87
2018-01-19T18:12:38.824Z,10.77
2018-01-19T18:15:06.323Z,10.47
2018-01-19T18:17:33.790Z,10.67
2018-01-19T18:20:01.328Z,12.03
2018-01-19T18:22:28.832Z,11.73
2018-01-19T18:24:56.300Z,12.40
2018-01-19T18:27:23.756Z,13.00
2018-01-19T18:29:51.309Z,11.53
2018-01-19T18:32:18.761Z,11.07
2018-01-19T18:34:46.300Z,10.33
2018-01-19T18:37:13.751Z,11.07
2018-01-19T18:39:41.241Z,9.93
2018-01-19T18:42:08.693Z,13.57
2018-01-19T18:44:36.171Z,10.27
2018-01-19T18:47:03.689Z,11.67
2018-01-19T18:49:31.186Z,8.40
2018-01-19T18:51:58.630Z,8.03
2018-01-19T18:54:26.161Z,8.50
2018-01-19T18:56:53.632Z,8.83
2018-01-19T18:59:21.091Z,8.00
2018-01-19T19:01:48.612Z,8.20
2018-01-19T19:04:16.080Z,7.90
2018-01-19T19:06:43.593Z,8.00
2018-01-19T19:09:11.037Z,8.60
2018-01-19T19:11:38.528Z,8.53
2018-01-19T19:14:06.030Z,7.60
2018-01-19T19:16:33.471Z,8.60
2018-01-19T19:19:00.979Z,9.00
2018-01-19T19:21:28.496Z,11.27
2018-01-19T19:23:55.970Z,9.03
2018-01-19T19:26:23.478Z,11.73
2018-01-19T19:28:50.953Z,9.70
2018-01-19T19:31:18.466Z,11.13
2018-01-19T19:33:46.002Z,11.23
2018-01-19T19:36:13.578Z,10.10
2018-01-19T19:38:41.119Z,9.23
2018-01-19T19:41:08.730Z,10.90
2018-01-19T19:43:36.200Z,10.80
2018-01-19T19:46:03.648Z,9.77
2018-01-19T19:48:31.123Z,11.97
2018-01-19T19:50:58.591Z,11.17
2018-01-19T19:53:26.098Z,10.67
2018-01-19T19:55:53.662Z,10.67
2018-01-19T19:58:21.184Z,10.13
2018-01-19T20:00:48.692Z,10.50
2018-01-19T20:03:17.017Z,11.67
2018-01-19T20:05:44.485Z,10.53
2018-01-19T20:08:11.953Z,10.27
2018-01-19T20:10:39.410Z,9.30
2018-01-19T20:13:06.898Z,10.23
2018-01-19T20:15:34.396Z,9.37
2018-01-19T20:18:01.932Z,11.33
2018-01-19T20:20:29.438Z,10.13
2018-01-19T20:22:56.938Z,11.07
2018-01-19T20:25:24.450Z,9.07
2018-01-19T20:27:51.906Z,9.53
2018-01-19T20:30:19.416Z,9.83
2018-01-19T20:32:46.933Z,9.67
2018-01-19T20:35:14.421Z,9.60
2018-01-19T20:37:41.929Z,9.37
2018-01-19T20:40:09.462Z,8.93
2018-01-19T20:42:37.018Z,9.70
2018-01-19T20:45:04.471Z,11.70
2018-01-19T20:47:31.967Z,9.67
2018-01-19T20:49:59.424Z,9.03
2018-01-19T20:52:27.016Z,8.50
2018-01-19T20:54:54.509Z,9.70
2018-01-19T20:57:21.999Z,9.53
2018-01-19T20:59:49.531Z,9.33
2018-01-19T21:02:17.076Z,9.37
2018-01-19T21:04:44.576Z,9.80
2018-01-19T21:07:12.122Z,9.80
2018-01-19T21:09:39.668Z,9.50
2018-01-19T21:12:07.159Z,9.80
2018-01-19T21:14:34.661Z,10.00
2018-01-19T21:17:02.149Z,9.47
2018-01-19T21:19:29.634Z,8.13
2018-01-19T21:21:57.179Z,10.80
2018-01-19T21:24:24.691Z,9.97
2018-01-19T21:26:52.210Z,10.50
2018-01-19T21:29:19.729Z,9.20
2018-01-19T21:31:47.251Z,8.40
2018-01-19T21:34:14.747Z,10.00
2018-01-19T21:36:42.220Z,7.23
2018-01-19T21:39:09.711Z,8.63
2018-01-19T21:41:37.156Z,7.73
2018-01-19T21:44:04.642Z,10.27
2018-01-19T21:46:32.145Z,8.10
2018-01-19T21:48:59.665Z,8.00
2018-01-19T21:51:27.129Z,9.00
2018-01-19T21:53:54.567Z,8.80
2018-01-19T21:56:22.161Z,8.57
2018-01-19T21:58:49.687Z,7.87
2018-01-19T22:01:17.287Z,7.63
2018-01-19T22:03:44.743Z,7.77
2018-01-19T22:06:12.238Z,8.17
2018-01-19T22:08:39.791Z,8.40
2018-01-19T22:11:07.290Z,7.13
2018-01-19T22:13:34.876Z,7.87
2018-01-19T22:16:02.385Z,8.13
2018-01-19T22:18:29.841Z,7.73
2018-01-19T22:20:57.350Z,7.63
2018-01-19T22:23:24.895Z,7.40
2018-01-19T22:25:52.417Z,7.83
2018-01-19T22:28:19.941Z,7.30
2018-01-19T22:30:47.431Z,8.00
2018-01-19T22:33:14.880Z,7.47
2018-01-19T22:35:42.340Z,6.40
2018-01-19T22:38:09.796Z,7.03
2018-01-19T22:40:37.292Z,6.93
2018-01-19T22:43:04.811Z,7.23
2018-01-19T22:45:32.325Z,7.47
2018-01-19T22:47:59.768Z,6.83
2018-01-19T22:50:27.270Z,7.60
2018-01-19T22:52:54.765Z,5.93
2018-01-19T22:55:22.289Z,6.93
2018-01-19T22:57:49.786Z,6.70
2018-01-19T23:00:21.145Z,6.77
2018-01-19T23:02:48.701Z,5.83
2018-01-19T23:05:16.199Z,7.67
2018-01-19T23:07:43.656Z,6.93
2018-01-19T23:10:11.139Z,7.20
2018-01-19T23:12:38.592Z,6.57
2018-01-19T23:15:06.127Z,7.10
2018-01-19T23:17:33.591Z,6.93
2018-01-19T23:20:01.074Z,7.53
2018-01-19T23:22:28.596Z,7.00
2018-01-19T23:24:56.084Z,6.80
2018-01-19T23:27:23.530Z,7.13
2018-01-19T23:29:51.055Z,6.90
2018-01-19T23:32:18.538Z,6.40
2018-01-19T23:34:52.591Z,7.00
2018-01-19T23:37:20.055Z,7.00
2018-01-19T23:39:47.562Z,7.23
2018-01-19T23:42:15.075Z,7.43
2018-01-19T23:44:42.661Z,7.23
2018-01-19T23:47:10.151Z,7.90
2018-01-19T23:49:37.602Z,7.67
2018-01-19T23:52:05.058Z,8.37
2018-01-19T23:54:32.589Z,7.07
2018-01-19T23:57:00.105Z,7.30
2018-01-19T23:59:27.547Z,8.37
